If you wish to contribute or participate in the discussions about articles you are invited to join SKYbrary as a registered user

 Actions

Eindhoven

From SKYbrary Wiki

EHEH /
Revision as of 16:18, 19 July 2010 by Timo.Kouwenhoven (talk | contribs) (Text replace - '14 degrees C' to 'Temperature::14°C')
Airport
ICAO: EHEH
Summary
Name Eindhoven
Region Europe
Territory Netherlands NL.gif
Location Eindhoven, Netherlands
Serving
Coordinates 51° 27' 0.00" N, 5° 22' 30.00" E
Runways
Designator Length Width Surface ROPS
4/22 3000 m9,842.52 ft <br /> 45 m147.638 ft <br /> ASP yes/yes


METAR
Observation EHEH 051555Z AUTO 05009KT 360V100 9999 NCD 06/M07 Q1030 BLU NOSIG
Station Eindhoven
Date/Time 05 March 2021 15:55:00
Wind direction 50°
Wind speed 09 kts
Lowest cloud amount no clouds detected
Temperature 6°C
Dew point
Humidity 38%
QNH 1030 hPa
Weather condition n/a


Eindhoven Airport

ICAO: EHEH IATA: EIN

Description

International airport serving Eindhoven, The Netherlands.

Climatology

Temperate Marine climate/Oceanic climate (Köppen climate classification Cfb). Moderately cool summer and comparatively warm winter with a temperature range of only 14°C57.2 °F <br />287.15 K <br />516.87 °R <br />. Prevailing south-westerly winds from the Atlantic Ocean.

Maps

Terrain

Loading map...

Airport Layout

Loading map...

Accidents & Serious Incidents at or in vicinity of EHEH